createdAt,value
2019-02-14T00:00:27.236Z,22.40
2019-02-14T00:02:56.283Z,21.20
2019-02-14T00:05:25.216Z,23.27
2019-02-14T00:07:54.061Z,24.43
2019-02-14T00:10:22.832Z,26.35
2019-02-14T00:12:52.264Z,22.27
2019-02-14T00:15:21.087Z,22.17
2019-02-14T00:17:49.857Z,21.48
2019-02-14T00:20:18.713Z,21.62
2019-02-14T00:22:48.146Z,27.80
2019-02-14T00:25:16.941Z,21.40
2019-02-14T00:27:46.102Z,26.13
2019-02-14T00:30:15.273Z,25.75
2019-02-14T00:32:44.714Z,29.42
2019-02-14T00:35:13.556Z,24.02
2019-02-14T00:37:42.332Z,27.37
2019-02-14T00:40:11.265Z,26.57
2019-02-14T00:42:40.043Z,24.35
2019-02-14T00:45:09.039Z,24.07
2019-02-14T00:47:37.857Z,27.27
2019-02-14T00:50:06.821Z,26.73
2019-02-14T00:52:35.877Z,29.90
2019-02-14T00:55:05.404Z,27.55
2019-02-14T00:57:34.187Z,26.85
2019-02-14T01:00:02.992Z,26.10
2019-02-14T01:02:31.760Z,23.92
2019-02-14T01:05:00.824Z,25.62
2019-02-14T01:07:29.726Z,22.85
2019-02-14T01:09:59.330Z,26.82
2019-02-14T01:12:28.204Z,22.15
2019-02-14T01:14:57.339Z,21.17
2019-02-14T01:17:26.424Z,22.02
2019-02-14T01:19:55.309Z,22.42
2019-02-14T01:22:24.136Z,22.73
2019-02-14T01:24:53.158Z,23.67
2019-02-14T01:27:22.298Z,23.70
2019-02-14T01:29:51.446Z,21.30
2019-02-14T01:32:20.312Z,24.47
2019-02-14T01:34:49.350Z,20.73
2019-02-14T01:37:18.145Z,20.23
2019-02-14T01:39:47.355Z,20.85
2019-02-14T01:42:16.215Z,21.40
2019-02-14T01:44:45.360Z,22.22
2019-02-14T01:47:14.158Z,19.60
2019-02-14T01:49:43.282Z,19.80
2019-02-14T01:52:12.077Z,20.32
2019-02-14T01:54:41.197Z,17.55
2019-02-14T01:57:09.975Z,18.93
2019-02-14T01:59:39.118Z,17.07
2019-02-14T02:02:07.900Z,18.67
2019-02-14T02:04:36.658Z,16.30
2019-02-14T02:07:05.963Z,17.85
2019-02-14T02:09:34.790Z,19.00
2019-02-14T02:12:03.745Z,19.27
2019-02-14T02:14:32.576Z,20.88
2019-02-14T02:17:01.311Z,20.30
2019-02-14T02:19:30.155Z,21.20
2019-02-14T02:21:58.894Z,20.57
2019-02-14T02:24:27.634Z,20.50
2019-02-14T02:26:56.775Z,20.08
2019-02-14T02:29:25.587Z,20.20
2019-02-14T02:31:54.458Z,20.27
2019-02-14T02:34:23.217Z,24.30
2019-02-14T02:36:52.014Z,17.77
2019-02-14T02:39:40.104Z,17.95
2019-02-14T02:42:08.914Z,20.63
2019-02-14T02:44:37.677Z,17.35
2019-02-14T02:47:06.815Z,16.05
2019-02-14T02:49:35.782Z,17.52
2019-02-14T02:52:04.817Z,15.53
2019-02-14T02:54:33.614Z,16.40
2019-02-14T02:57:02.798Z,17.77
2019-02-14T02:59:32.128Z,16.95
2019-02-14T03:02:01.104Z,17.90
2019-02-14T03:04:30.641Z,18.37
2019-02-14T03:06:59.411Z,16.10
2019-02-14T03:09:28.459Z,16.87
2019-02-14T03:11:57.500Z,17.80
2019-02-14T03:14:26.296Z,17.27
2019-02-14T03:16:55.319Z,18.50
2019-02-14T03:19:24.187Z,17.52
2019-02-14T03:21:53.023Z,16.37
2019-02-14T03:24:22.044Z,15.67
2019-02-14T03:26:50.830Z,16.82
2019-02-14T03:29:19.858Z,15.30
2019-02-14T03:31:48.653Z,18.57
2019-02-14T03:34:17.993Z,19.45
2019-02-14T03:36:46.860Z,16.40
2019-02-14T03:39:15.690Z,17.12
2019-02-14T03:41:44.791Z,17.42
2019-02-14T03:44:13.666Z,17.42
2019-02-14T03:46:42.554Z,16.02
2019-02-14T03:49:11.564Z,14.95
2019-02-14T03:51:40.971Z,15.48
2019-02-14T03:54:10.369Z,15.23
2019-02-14T03:56:39.441Z,16.30
2019-02-14T03:59:08.520Z,15.88
2019-02-14T04:01:37.402Z,17.93
2019-02-14T04:04:06.825Z,19.80
2019-02-14T04:06:35.977Z,18.87
2019-02-14T04:09:07.651Z,18.98
2019-02-14T04:11:36.829Z,18.47
2019-02-14T04:14:05.789Z,22.17
2019-02-14T04:16:34.973Z,19.60
2019-02-14T04:19:03.897Z,18.80
2019-02-14T04:21:32.679Z,21.45
2019-02-14T04:24:01.464Z,19.27
2019-02-14T04:26:30.321Z,17.65
2019-02-14T04:28:59.813Z,17.02
2019-02-14T04:31:28.644Z,17.02
2019-02-14T04:33:57.966Z,17.92
2019-02-14T04:36:26.752Z,18.10
2019-02-14T04:38:55.610Z,19.15
2019-02-14T04:41:24.453Z,19.50
2019-02-14T04:43:53.727Z,20.85
2019-02-14T04:46:22.525Z,20.70
2019-02-14T04:48:51.487Z,20.75
2019-02-14T04:51:20.262Z,17.48
2019-02-14T04:53:49.115Z,20.72
2019-02-14T04:56:17.916Z,19.92
2019-02-14T04:58:46.688Z,23.65
2019-02-14T05:01:15.650Z,21.17
2019-02-14T05:03:44.441Z,21.05
2019-02-14T05:06:13.705Z,16.20
2019-02-14T05:08:42.605Z,19.35
2019-02-14T05:11:11.806Z,20.25
2019-02-14T05:13:40.674Z,18.02
2019-02-14T05:16:09.542Z,16.62
2019-02-14T05:18:39.014Z,18.07
2019-02-14T05:21:08.018Z,17.27
2019-02-14T05:23:37.066Z,17.05
2019-02-14T05:26:05.941Z,16.77
2019-02-14T05:28:35.463Z,16.67
2019-02-14T05:31:04.359Z,16.82
2019-02-14T05:33:33.164Z,16.37
2019-02-14T05:36:01.971Z,17.05
2019-02-14T05:38:31.250Z,17.90
2019-02-14T05:41:00.170Z,16.95
2019-02-14T05:43:28.980Z,17.62
2019-02-14T05:45:57.832Z,18.05
2019-02-14T05:48:26.675Z,19.17
2019-02-14T05:50:55.680Z,18.12
2019-02-14T05:53:25.374Z,18.65
2019-02-14T05:55:54.574Z,19.40
2019-02-14T05:58:23.821Z,21.52
2019-02-14T06:00:52.673Z,20.30
2019-02-14T06:03:22.085Z,21.87
2019-02-14T06:05:51.030Z,25.23
2019-02-14T06:08:19.807Z,24.32
2019-02-14T06:10:48.965Z,22.85
2019-02-14T06:13:18.047Z,22.77
2019-02-14T06:15:47.247Z,26.82
2019-02-14T06:18:16.074Z,25.77
2019-02-14T06:20:45.215Z,25.60
2019-02-14T06:23:14.123Z,30.97
2019-02-14T06:25:43.203Z,29.60
2019-02-14T06:28:11.993Z,25.17
2019-02-14T06:30:41.083Z,26.77
2019-02-14T06:33:10.486Z,38.17
2019-02-14T06:35:40.123Z,32.20
2019-02-14T06:38:09.270Z,29.75
2019-02-14T06:40:38.103Z,27.80
2019-02-14T06:43:06.953Z,26.42
2019-02-14T06:45:36.078Z,22.80
2019-02-14T06:48:05.254Z,25.17
2019-02-14T06:50:34.993Z,23.57
2019-02-14T06:53:04.261Z,22.07
2019-02-14T06:55:33.036Z,21.30
2019-02-14T06:58:01.914Z,20.32
2019-02-14T07:00:31.252Z,20.08
2019-02-14T07:03:00.066Z,20.60
2019-02-14T07:05:29.271Z,22.42
2019-02-14T07:07:58.433Z,26.02
2019-02-14T07:10:27.294Z,25.10
2019-02-14T07:12:56.376Z,25.52
2019-02-14T07:15:25.231Z,23.38
2019-02-14T07:17:54.266Z,26.42
2019-02-14T07:20:23.137Z,31.00
2019-02-14T07:23:11.271Z,34.10
2019-02-14T07:25:40.513Z,25.50
2019-02-14T07:28:09.445Z,27.70
2019-02-14T07:30:38.415Z,23.10
2019-02-14T07:33:07.444Z,23.45
2019-02-14T07:35:36.405Z,24.35
2019-02-14T07:38:05.435Z,25.27
2019-02-14T07:40:34.478Z,23.75
2019-02-14T07:43:03.683Z,25.25
2019-02-14T07:45:32.517Z,24.87
2019-02-14T07:48:01.310Z,24.30
2019-02-14T07:50:30.186Z,24.70
2019-02-14T07:52:59.329Z,26.85
2019-02-14T07:55:28.188Z,25.95
2019-02-14T07:57:57.127Z,30.25
2019-02-14T08:00:25.925Z,27.70
2019-02-14T08:02:56.332Z,26.12
2019-02-14T08:05:25.520Z,23.60
2019-02-14T08:07:54.640Z,26.37
2019-02-14T08:10:23.505Z,23.38
2019-02-14T08:12:52.481Z,21.30
2019-02-14T08:15:21.349Z,19.87
2019-02-14T08:17:50.158Z,22.07
2019-02-14T08:20:19.114Z,23.43
2019-02-14T08:22:48.685Z,26.73
2019-02-14T08:25:17.580Z,26.20
2019-02-14T08:27:46.341Z,25.12
2019-02-14T08:30:15.817Z,25.02
2019-02-14T08:32:44.680Z,27.87
2019-02-14T08:35:13.589Z,28.93
2019-02-14T08:37:45.382Z,25.25
2019-02-14T08:40:16.175Z,23.62
2019-02-14T08:42:45.405Z,27.02
2019-02-14T08:45:14.257Z,24.67
2019-02-14T08:47:43.060Z,24.20
2019-02-14T08:50:12.085Z,22.32
2019-02-14T08:52:40.901Z,21.27
2019-02-14T08:55:10.236Z,22.82
2019-02-14T08:57:39.112Z,20.25
2019-02-14T09:00:10.667Z,22.48
2019-02-14T09:02:39.931Z,23.87
2019-02-14T09:05:09.015Z,22.20
2019-02-14T09:07:38.240Z,23.00
2019-02-14T09:10:09.065Z,20.17
2019-02-14T09:12:37.887Z,22.13
2019-02-14T09:15:07.602Z,20.43
2019-02-14T09:17:36.669Z,25.45
2019-02-14T09:20:06.986Z,26.42
2019-02-14T09:22:35.785Z,22.15
2019-02-14T09:25:05.045Z,21.35
2019-02-14T09:27:33.868Z,24.27
2019-02-14T09:30:03.037Z,24.87
2019-02-14T09:32:32.198Z,28.07
2019-02-14T09:35:00.984Z,30.65
2019-02-14T09:37:29.860Z,29.48
2019-02-14T09:39:58.629Z,29.47
2019-02-14T09:42:29.142Z,32.23
2019-02-14T09:44:58.288Z,32.50
2019-02-14T09:47:27.394Z,29.15
2019-02-14T09:49:56.468Z,27.98
2019-02-14T09:52:25.999Z,29.72
2019-02-14T09:54:54.865Z,29.27
2019-02-14T09:57:23.648Z,26.07
2019-02-14T09:59:52.502Z,25.90
2019-02-14T10:02:22.399Z,25.63
2019-02-14T10:04:51.839Z,24.80
2019-02-14T10:07:20.957Z,23.67
2019-02-14T10:09:50.131Z,21.90
2019-02-14T10:12:19.044Z,22.75
2019-02-14T10:14:48.001Z,21.82
2019-02-14T10:17:22.277Z,24.20
2019-02-14T10:19:47.723Z,24.07
2019-02-14T10:22:17.120Z,22.83
2019-02-14T10:24:46.447Z,24.60
2019-02-14T10:27:15.307Z,22.05
2019-02-14T10:29:44.193Z,25.12
2019-02-14T10:32:13.199Z,26.00
2019-02-14T10:34:46.847Z,25.00
2019-02-14T10:37:16.527Z,24.55
2019-02-14T10:39:45.848Z,23.05
2019-02-14T10:42:15.209Z,24.30
2019-02-14T10:44:44.461Z,23.27
2019-02-14T10:47:14.582Z,22.60
2019-02-14T10:49:44.019Z,23.80
2019-02-14T10:52:13.100Z,24.85
2019-02-14T10:54:42.182Z,22.75
2019-02-14T10:57:11.498Z,22.47
2019-02-14T10:59:41.250Z,21.80
2019-02-14T11:02:10.887Z,23.30
2019-02-14T11:04:40.178Z,23.57
2019-02-14T11:07:09.494Z,23.98
2019-02-14T11:09:38.827Z,24.23
2019-02-14T11:12:08.364Z,26.23
2019-02-14T11:14:37.652Z,22.80
2019-02-14T11:17:07.742Z,22.85
2019-02-14T11:19:37.831Z,24.07
2019-02-14T11:22:07.255Z,22.32
2019-02-14T11:24:36.032Z,22.77
2019-02-14T11:27:06.386Z,23.32
2019-02-14T11:29:37.027Z,24.70
2019-02-14T11:32:07.288Z,23.70
2019-02-14T11:34:37.324Z,23.90
2019-02-14T11:37:06.273Z,23.98
2019-02-14T11:39:35.250Z,25.05
2019-02-14T11:42:04.848Z,25.95
2019-02-14T11:44:39.723Z,25.33
2019-02-14T11:47:04.583Z,27.32
2019-02-14T11:49:33.551Z,25.27
2019-02-14T11:52:03.291Z,27.93
2019-02-14T11:54:32.294Z,30.57
2019-02-14T11:57:01.392Z,31.23
2019-02-14T11:59:30.455Z,28.45
2019-02-14T12:01:59.397Z,28.73
2019-02-14T12:04:28.316Z,26.97
2019-02-14T12:06:57.237Z,31.07
2019-02-14T12:09:26.095Z,30.10
2019-02-14T12:11:55.211Z,31.23
2019-02-14T12:14:24.084Z,31.05
2019-02-14T12:16:53.008Z,30.12
2019-02-14T12:19:21.967Z,30.05
2019-02-14T12:21:51.063Z,30.88
2019-02-14T12:24:19.917Z,32.38
2019-02-14T12:26:48.693Z,30.92
2019-02-14T12:29:17.766Z,30.75
2019-02-14T12:31:46.961Z,29.00
2019-02-14T12:34:16.033Z,28.95
2019-02-14T12:36:44.811Z,28.87
2019-02-14T12:39:13.570Z,30.12
2019-02-14T12:41:42.500Z,32.58
2019-02-14T12:44:11.365Z,29.00
2019-02-14T12:46:40.132Z,30.10
2019-02-14T12:49:08.955Z,30.77
2019-02-14T12:51:37.722Z,27.73
2019-02-14T12:54:06.843Z,27.67
2019-02-14T12:56:35.725Z,29.95
2019-02-14T12:59:04.762Z,30.95
2019-02-14T13:01:33.543Z,28.52
2019-02-14T13:04:02.353Z,28.30
2019-02-14T13:06:31.495Z,27.25
2019-02-14T13:09:00.366Z,28.00
2019-02-14T13:11:29.141Z,30.10
2019-02-14T13:13:57.910Z,28.10
2019-02-14T13:16:26.953Z,31.52
2019-02-14T13:18:55.708Z,29.32
2019-02-14T13:21:24.638Z,28.45
2019-02-14T13:23:53.717Z,30.15
2019-02-14T13:26:22.490Z,29.60
2019-02-14T13:28:51.523Z,29.32
2019-02-14T13:31:20.303Z,30.75
2019-02-14T13:33:49.072Z,30.17
2019-02-14T13:36:17.966Z,31.50
2019-02-14T13:38:46.745Z,31.27
2019-02-14T13:41:15.926Z,28.92
2019-02-14T13:43:44.761Z,30.95
2019-02-14T13:46:13.708Z,29.60
2019-02-14T13:48:42.489Z,31.57
2019-02-14T13:51:11.568Z,29.87
2019-02-14T13:53:40.418Z,30.15
2019-02-14T13:56:09.360Z,29.60
2019-02-14T13:58:38.214Z,30.60
2019-02-14T14:01:07.727Z,31.27
2019-02-14T14:03:36.761Z,31.48
2019-02-14T14:06:05.784Z,32.40
2019-02-14T14:08:34.789Z,32.35
2019-02-14T14:11:03.863Z,34.15
2019-02-14T14:13:32.726Z,34.50
2019-02-14T14:16:01.618Z,31.05
2019-02-14T14:18:30.734Z,29.95
2019-02-14T14:21:00.156Z,33.42
2019-02-14T14:23:28.945Z,30.88
2019-02-14T14:25:58.843Z,31.87
2019-02-14T14:28:27.627Z,34.13
2019-02-14T14:30:56.381Z,31.25
2019-02-14T14:33:25.223Z,34.60
2019-02-14T14:35:54.050Z,32.13
2019-02-14T14:38:22.830Z,35.15
2019-02-14T14:40:51.660Z,37.45
2019-02-14T14:43:32.718Z,32.93
2019-02-14T14:46:14.998Z,36.30
2019-02-14T14:48:44.245Z,32.33
2019-02-14T14:51:13.656Z,32.30
2019-02-14T14:53:42.577Z,33.48
2019-02-14T14:56:11.342Z,32.50
2019-02-14T14:58:40.126Z,32.33
2019-02-14T15:01:08.972Z,34.05
2019-02-14T15:03:38.016Z,32.45
2019-02-14T15:06:07.281Z,33.13
2019-02-14T15:08:36.190Z,31.97
2019-02-14T15:11:05.466Z,33.28
2019-02-14T15:13:34.388Z,32.50
2019-02-14T15:16:03.445Z,32.80
2019-02-14T15:18:32.451Z,31.53
2019-02-14T15:21:01.381Z,33.10
2019-02-14T15:23:30.241Z,30.65
2019-02-14T15:25:59.241Z,35.40
2019-02-14T15:28:28.404Z,32.80
2019-02-14T15:30:57.559Z,32.85
2019-02-14T15:33:26.739Z,32.07
2019-02-14T15:35:55.665Z,32.10
2019-02-14T15:38:24.681Z,32.27
2019-02-14T15:40:53.870Z,31.67
2019-02-14T15:43:22.741Z,31.52
2019-02-14T15:45:52.001Z,33.33
2019-02-14T15:48:21.262Z,30.27
2019-02-14T15:50:51.492Z,31.33
2019-02-14T15:53:21.597Z,31.65
2019-02-14T15:55:50.867Z,31.97
2019-02-14T15:58:19.826Z,34.18
2019-02-14T16:00:50.029Z,32.88
2019-02-14T16:03:19.743Z,32.70
2019-02-14T16:05:49.253Z,29.48
2019-02-14T16:08:19.658Z,32.75
2019-02-14T16:10:53.404Z,32.67
2019-02-14T16:13:20.129Z,30.37
2019-02-14T16:15:49.353Z,31.17
2019-02-14T16:18:18.269Z,30.67
2019-02-14T16:20:47.076Z,31.73
2019-02-14T16:23:16.222Z,30.40
2019-02-14T16:25:45.290Z,29.90
2019-02-14T16:28:14.103Z,28.40
2019-02-14T16:30:42.996Z,29.90
2019-02-14T16:33:12.172Z,30.88
2019-02-14T16:35:40.961Z,33.53
2019-02-14T16:38:11.773Z,38.28
2019-02-14T16:40:40.541Z,31.68
2019-02-14T16:43:09.397Z,28.57
2019-02-14T16:45:39.277Z,28.75
2019-02-14T16:48:08.056Z,28.20
2019-02-14T16:50:37.123Z,26.85
2019-02-14T16:53:06.210Z,29.30
2019-02-14T16:55:34.970Z,28.02
2019-02-14T16:58:03.820Z,29.50
2019-02-14T17:00:33.456Z,29.77
2019-02-14T17:03:02.396Z,30.48
2019-02-14T17:05:31.494Z,28.00
2019-02-14T17:08:01.976Z,28.35
2019-02-14T17:10:36.774Z,28.12
2019-02-14T17:13:01.651Z,28.62
2019-02-14T17:15:30.546Z,28.92
2019-02-14T17:17:59.802Z,27.67
2019-02-14T17:20:29.281Z,27.45
2019-02-14T17:22:58.977Z,25.30
2019-02-14T17:25:28.889Z,25.68
2019-02-14T17:28:01.113Z,25.35
2019-02-14T17:30:30.418Z,24.27
2019-02-14T17:33:00.226Z,27.07
2019-02-14T17:35:29.412Z,26.60
2019-02-14T17:37:58.341Z,31.65
2019-02-14T17:40:27.386Z,39.92
2019-02-14T17:42:56.261Z,31.60
2019-02-14T17:45:25.438Z,32.90
2019-02-14T17:47:54.267Z,32.50
2019-02-14T17:50:23.143Z,29.85
2019-02-14T17:52:52.220Z,34.48
2019-02-14T17:55:21.028Z,32.93
2019-02-14T17:57:50.616Z,31.77
2019-02-14T18:00:19.562Z,29.02
2019-02-14T18:02:48.659Z,29.95
2019-02-14T18:05:17.506Z,25.40
2019-02-14T18:07:46.385Z,29.27
2019-02-14T18:10:54.707Z,26.25
2019-02-14T18:13:19.241Z,32.42
2019-02-14T18:15:48.024Z,39.63
2019-02-14T18:18:16.873Z,51.45
2019-02-14T18:20:46.174Z,42.33
2019-02-14T18:23:14.988Z,30.43
2019-02-14T18:25:44.690Z,30.27
2019-02-14T18:28:15.123Z,33.40
2019-02-14T18:30:44.097Z,27.65
2019-02-14T18:33:25.589Z,32.48
2019-02-14T18:35:54.797Z,29.02
2019-02-14T18:38:23.787Z,31.17
2019-02-14T18:40:53.059Z,31.25
2019-02-14T18:43:22.683Z,35.88
2019-02-14T18:45:51.781Z,34.13
2019-02-14T18:48:21.912Z,35.65
2019-02-14T18:50:51.951Z,31.15
2019-02-14T18:53:22.607Z,34.20
2019-02-14T18:55:52.452Z,33.78
2019-02-14T18:58:26.400Z,31.62
2019-02-14T19:00:52.805Z,30.68
2019-02-14T19:03:22.497Z,30.77
2019-02-14T19:05:52.044Z,29.52
2019-02-14T19:08:21.525Z,36.88
2019-02-14T19:10:50.636Z,33.63
2019-02-14T19:13:19.515Z,32.73
2019-02-14T19:15:48.378Z,35.03
2019-02-14T19:18:17.834Z,31.40
2019-02-14T19:20:50.302Z,29.05
2019-02-14T19:23:24.204Z,29.85
2019-02-14T19:25:50.506Z,30.80
2019-02-14T19:28:19.309Z,31.25
2019-02-14T19:30:48.164Z,31.00
2019-02-14T19:33:17.175Z,30.37
2019-02-14T19:35:46.501Z,30.43
2019-02-14T19:38:15.667Z,33.75
2019-02-14T19:40:44.606Z,29.85
2019-02-14T19:43:13.897Z,29.32
2019-02-14T19:45:43.555Z,29.37
2019-02-14T19:48:12.737Z,31.15
2019-02-14T19:50:41.852Z,32.73
2019-02-14T19:53:10.926Z,34.90
2019-02-14T19:55:40.023Z,35.68
2019-02-14T19:58:08.945Z,35.88
2019-02-14T20:00:37.897Z,33.30
2019-02-14T20:03:07.011Z,33.53
2019-02-14T20:05:36.051Z,29.63
2019-02-14T20:08:05.606Z,29.40
2019-02-14T20:10:34.489Z,28.90
2019-02-14T20:13:03.370Z,29.52
2019-02-14T20:15:37.246Z,29.32
2019-02-14T20:18:03.225Z,29.55
2019-02-14T20:20:32.133Z,29.18
2019-02-14T20:25:58.056Z,32.95
2019-02-14T20:28:27.051Z,33.75
2019-02-14T20:31:30.674Z,36.38
2019-02-14T20:33:59.465Z,36.58
2019-02-14T20:36:28.248Z,34.45
2019-02-14T20:38:57.114Z,34.03
2019-02-14T20:41:30.825Z,35.05
2019-02-14T20:44:00.738Z,34.33
2019-02-14T20:46:30.034Z,36.95
2019-02-14T20:48:59.298Z,33.00
2019-02-14T20:51:38.079Z,36.63
2019-02-14T20:53:59.465Z,34.55
2019-02-14T20:56:28.375Z,33.95
2019-02-14T20:58:57.734Z,33.15
2019-02-14T21:01:27.382Z,29.60
2019-02-14T21:03:56.645Z,30.23
2019-02-14T21:06:26.054Z,33.55
2019-02-14T21:08:55.520Z,31.33
2019-02-14T21:11:39.414Z,32.42
2019-02-14T21:14:08.617Z,32.13
2019-02-14T21:16:37.503Z,34.78
2019-02-14T21:19:06.403Z,33.67
2019-02-14T21:21:35.509Z,33.60
2019-02-14T21:24:04.583Z,32.42
2019-02-14T21:26:33.733Z,34.70
2019-02-14T21:29:03.069Z,32.45
2019-02-14T21:31:33.203Z,33.13
2019-02-14T21:34:02.207Z,34.40
2019-02-14T21:36:35.270Z,34.35
2019-02-14T21:39:05.420Z,36.60
2019-02-14T21:41:34.979Z,34.87
2019-02-14T21:44:09.351Z,31.90
2019-02-14T21:46:38.297Z,31.23
2019-02-14T21:49:08.608Z,36.30
2019-02-14T21:51:53.454Z,35.05
2019-02-14T21:54:54.663Z,34.43
2019-02-14T21:57:45.458Z,35.48
2019-02-14T22:00:17.562Z,39.63
2019-02-14T22:02:52.024Z,37.93
2019-02-14T22:05:25.160Z,39.65
2019-02-14T22:07:56.183Z,36.98
2019-02-14T22:10:25.580Z,37.38
2019-02-14T22:12:59.591Z,37.28
2019-02-14T22:15:36.723Z,37.17
2019-02-14T22:18:06.191Z,37.20
2019-02-14T22:20:35.676Z,44.05
2019-02-14T22:23:04.953Z,49.83
2019-02-14T22:25:33.753Z,45.50
2019-02-14T22:28:02.801Z,43.75
2019-02-14T22:30:31.917Z,40.55
2019-02-14T22:33:00.816Z,40.03
2019-02-14T22:35:29.729Z,39.63
2019-02-14T22:37:59.071Z,39.35
2019-02-14T22:40:28.248Z,40.97
2019-02-14T22:42:57.065Z,42.15
2019-02-14T22:45:26.506Z,41.45
2019-02-14T22:47:55.722Z,48.77
2019-02-14T22:50:24.497Z,44.33
2019-02-14T22:52:53.474Z,39.42
2019-02-14T22:55:22.286Z,41.40
2019-02-14T22:57:51.092Z,40.75
2019-02-14T23:00:29.357Z,41.30
2019-02-14T23:02:58.260Z,40.03
2019-02-14T23:05:27.070Z,41.45
2019-02-14T23:07:56.126Z,38.98
2019-02-14T23:10:24.962Z,42.58
2019-02-14T23:12:55.864Z,36.73
2019-02-14T23:15:24.750Z,40.70
2019-02-14T23:17:53.996Z,44.03
2019-02-14T23:20:22.873Z,40.55
2019-02-14T23:22:52.085Z,41.08
2019-02-14T23:25:21.021Z,43.02
2019-02-14T23:27:49.941Z,41.30
2019-02-14T23:30:18.724Z,46.33
2019-02-14T23:32:47.792Z,39.73
2019-02-14T23:35:16.713Z,39.88
2019-02-14T23:37:45.653Z,40.95
2019-02-14T23:40:14.669Z,40.80
2019-02-14T23:42:43.758Z,41.83
2019-02-14T23:45:12.699Z,40.67
2019-02-14T23:47:41.744Z,40.00
2019-02-14T23:50:10.692Z,50.92
2019-02-14T23:52:39.473Z,42.23
2019-02-14T23:55:08.676Z,42.53
2019-02-14T23:57:37.859Z,45.73
